createdAt,value
2019-05-03T00:04:15.870Z,94476.84
2019-05-03T00:09:18.484Z,94472.25
2019-05-03T00:14:21.808Z,94472.59
2019-05-03T00:19:23.981Z,94472.39
2019-05-03T00:24:25.914Z,94480.45
2019-05-03T00:29:27.915Z,94475.55
2019-05-03T00:34:47.073Z,94477.70
2019-05-03T00:40:01.896Z,94481.47
2019-05-03T00:45:08.484Z,94483.58
2019-05-03T00:50:12.029Z,94482.30
2019-05-03T00:55:16.983Z,94479.98
2019-05-03T01:00:18.316Z,94484.78
2019-05-03T01:05:20.192Z,94482.91
2019-05-03T01:10:22.762Z,94487.66
2019-05-03T01:15:32.342Z,94481.89
2019-05-03T01:20:34.180Z,94484.97
2019-05-03T01:25:36.140Z,94480.98
2019-05-03T01:30:38.138Z,94483.95
2019-05-03T01:35:40.063Z,94482.92
2019-05-03T01:40:42.057Z,94482.80
2019-05-03T01:45:43.961Z,94480.27
2019-05-03T01:50:56.457Z,94481.42
2019-05-03T01:55:58.507Z,94479.89
2019-05-03T02:01:17.519Z,94478.93
2019-05-03T02:06:19.455Z,94481.38
2019-05-03T02:11:22.249Z,94474.59
2019-05-03T02:16:24.317Z,94474.25
2019-05-03T02:21:26.249Z,94470.03
2019-05-03T02:26:28.186Z,94470.18
2019-05-03T02:31:32.692Z,94477.85
2019-05-03T02:36:33.996Z,94476.96
2019-05-03T02:41:36.072Z,94477.00
2019-05-03T02:46:39.756Z,94481.59
2019-05-03T02:51:41.601Z,94480.57
2019-05-03T02:56:45.832Z,94481.48
2019-05-03T03:01:47.392Z,94488.31
2019-05-03T03:06:51.362Z,94489.01
2019-05-03T03:11:56.851Z,94486.62
2019-05-03T03:17:01.545Z,94500.41
2019-05-03T03:22:05.873Z,94512.20
2019-05-03T03:27:11.846Z,94506.25
2019-05-03T03:32:20.402Z,94502.37
2019-05-03T03:37:22.591Z,94501.92
2019-05-03T03:42:25.142Z,94500.25
2019-05-03T03:47:28.975Z,94504.89
2019-05-03T03:52:32.289Z,94516.13
2019-05-03T03:57:36.112Z,94506.56
2019-05-03T04:02:38.589Z,94509.73
2019-05-03T04:07:40.762Z,94514.10
2019-05-03T04:12:45.438Z,94514.88
2019-05-03T04:17:52.622Z,94518.45
2019-05-03T04:22:56.096Z,94518.13
2019-05-03T04:27:58.514Z,94516.89
2019-05-03T04:33:00.438Z,94514.28
2019-05-03T04:38:05.306Z,94513.63
2019-05-03T04:43:06.577Z,94514.98
2019-05-03T04:48:08.669Z,94527.91
2019-05-03T04:53:10.549Z,94524.19
2019-05-03T04:58:12.471Z,94528.31
2019-05-03T05:03:15.155Z,94527.09
2019-05-03T05:08:17.186Z,94529.41
2019-05-03T05:13:19.156Z,94514.20
2019-05-03T05:18:26.386Z,94519.55
2019-05-03T05:23:28.584Z,94525.05
2019-05-03T05:28:32.212Z,94539.19
2019-05-03T05:33:35.340Z,94536.25
2019-05-03T05:38:37.434Z,94530.81
2019-05-03T05:43:39.383Z,94526.59
2019-05-03T05:48:49.248Z,94525.12
2019-05-03T05:53:51.202Z,94522.56
2019-05-03T05:58:55.376Z,94525.78
2019-05-03T06:03:57.707Z,94530.31
2019-05-03T06:09:10.735Z,94535.73
2019-05-03T06:20:21.546Z,94531.25
2019-05-03T06:25:31.194Z,94533.34
2019-05-03T06:30:37.878Z,94532.32
2019-05-03T06:35:41.335Z,94532.22
2019-05-03T06:40:44.684Z,94534.92
2019-05-03T06:45:50.481Z,94524.59
2019-05-03T06:50:50.764Z,94530.37
2019-05-03T06:55:52.758Z,94528.98
2019-05-03T07:00:57.650Z,94525.95
2019-05-03T07:06:17.567Z,94522.28
2019-05-03T07:11:20.611Z,94512.55
2019-05-03T07:16:22.542Z,94508.97
2019-05-03T07:21:24.822Z,94505.08
2019-05-03T07:26:27.021Z,94503.57
2019-05-03T07:31:28.874Z,94501.44
2019-05-03T07:36:30.808Z,94501.20
2019-05-03T07:41:32.777Z,94488.82
2019-05-03T07:46:34.999Z,94484.23
2019-05-03T07:51:36.963Z,94484.98
2019-05-03T07:56:40.676Z,94484.33
2019-05-03T08:01:45.575Z,94474.09
2019-05-03T08:06:47.826Z,94467.66
2019-05-03T08:11:49.696Z,94476.28
2019-05-03T08:16:51.639Z,94468.44
2019-05-03T08:21:56.459Z,94463.70
2019-05-03T08:26:57.341Z,94459.52
2019-05-03T08:32:16.174Z,94462.04
2019-05-03T08:37:20.078Z,94458.69
2019-05-03T08:42:25.389Z,94451.09
2019-05-03T08:47:27.531Z,94448.02
2019-05-03T08:52:29.459Z,94433.27
2019-05-03T08:57:31.507Z,94436.69
2019-05-03T09:02:34.590Z,94430.82
2019-05-03T09:07:36.661Z,94425.91
2019-05-03T09:12:57.247Z,94417.09
2019-05-03T09:17:59.236Z,94417.38
2019-05-03T09:23:01.311Z,94405.64
2019-05-03T09:28:04.683Z,94401.92
2019-05-03T09:33:09.027Z,94394.45
2019-05-03T09:38:10.719Z,94370.74
2019-05-03T09:43:15.109Z,94370.74
2019-05-03T09:48:17.371Z,94374.05
2019-05-03T09:53:21.218Z,94374.05
2019-05-03T09:58:23.138Z,94366.84
2019-05-03T10:03:24.995Z,94365.47
2019-05-03T10:08:26.899Z,94353.06
2019-05-03T10:13:28.778Z,94353.62
2019-05-03T10:18:30.744Z,94349.48
2019-05-03T10:23:35.784Z,94337.30
2019-05-03T10:28:38.231Z,94336.63
2019-05-03T10:33:47.962Z,94330.11
2019-05-03T10:38:49.903Z,94316.74
2019-05-03T10:43:51.933Z,94310.39
2019-05-03T10:48:55.862Z,94294.73
2019-05-03T10:53:59.519Z,94294.74
2019-05-03T10:59:06.461Z,94297.04
2019-05-03T11:04:08.402Z,94294.43
2019-05-03T11:09:10.452Z,94291.66
2019-05-03T11:14:14.762Z,94293.63
2019-05-03T11:19:16.544Z,94286.99
2019-05-03T11:24:18.579Z,94279.27
2019-05-03T11:29:20.506Z,94274.00
2019-05-03T11:34:25.337Z,94268.23
2019-05-03T11:39:38.073Z,94258.34
2019-05-03T11:44:40.042Z,94253.30
2019-05-03T11:49:42.097Z,94254.20
2019-05-03T11:54:45.251Z,94256.75
2019-05-03T11:59:47.640Z,94257.72
2019-05-03T12:04:49.473Z,94245.94
2019-05-03T12:09:51.464Z,94234.28
2019-05-03T12:14:54.814Z,94235.67
2019-05-03T12:19:58.323Z,94228.66
2019-05-03T12:25:01.304Z,94218.86
2019-05-03T12:30:07.130Z,94214.95
2019-05-03T12:35:10.633Z,94214.61
2019-05-03T12:40:14.939Z,94204.26
2019-05-03T12:45:17.263Z,94195.38
2019-05-03T12:50:19.463Z,94194.31
2019-05-03T12:55:21.526Z,94187.77
2019-05-03T13:00:34.597Z,94187.21
2019-05-03T13:05:36.810Z,94182.09
2019-05-03T13:10:39.951Z,94171.61
2019-05-03T13:15:41.934Z,94172.02
2019-05-03T13:20:45.379Z,94158.95
2019-05-03T13:25:47.559Z,94164.30
2019-05-03T13:30:49.444Z,94166.08
2019-05-03T13:35:51.408Z,94161.84
2019-05-03T13:40:54.371Z,94162.80
2019-05-03T13:45:56.729Z,94151.84
2019-05-03T13:50:58.574Z,94150.96
2019-05-03T13:56:00.561Z,94155.94
2019-05-03T14:01:02.579Z,94154.73
2019-05-03T14:06:08.688Z,94149.80
2019-05-03T14:11:08.605Z,94146.23
2019-05-03T14:16:10.545Z,94150.08
2019-05-03T14:21:15.079Z,94151.48
2019-05-03T14:26:18.281Z,94143.19
2019-05-03T14:31:20.197Z,94143.60
2019-05-03T14:36:25.060Z,94141.09
2019-05-03T14:41:27.308Z,94135.70
2019-05-03T14:46:33.166Z,94133.16
2019-05-03T14:51:34.958Z,94132.39
2019-05-03T14:56:40.208Z,94124.15
2019-05-03T15:01:43.902Z,94116.66
2019-05-03T15:06:46.144Z,94121.43
2019-05-03T15:11:48.188Z,94125.48
2019-05-03T15:16:50.209Z,94126.89
2019-05-03T15:21:52.065Z,94117.94
2019-05-03T15:26:55.370Z,94116.31
2019-05-03T15:31:57.447Z,94119.03
2019-05-03T15:36:59.333Z,94118.00
2019-05-03T15:42:01.244Z,94112.64
2019-05-03T15:47:09.499Z,94110.14
2019-05-03T15:52:11.727Z,94115.80
2019-05-03T15:57:14.468Z,94111.00
2019-05-03T16:02:16.480Z,94115.70
2019-05-03T16:07:18.543Z,94114.35
2019-05-03T16:12:20.573Z,94111.70
2019-05-03T16:17:24.382Z,94106.57
2019-05-03T16:22:26.674Z,94104.36
2019-05-03T16:27:30.496Z,94109.83
2019-05-03T16:32:34.705Z,94114.09
2019-05-03T16:37:37.331Z,94105.66
2019-05-03T16:42:39.160Z,94113.02
2019-05-03T16:47:41.084Z,94115.09
2019-05-03T16:52:45.575Z,94119.41
2019-05-03T16:57:48.757Z,94113.59
2019-05-03T17:02:50.637Z,94119.59
2019-05-03T17:08:11.230Z,94124.56
2019-05-03T17:13:14.822Z,94128.50
2019-05-03T17:18:17.301Z,94129.20
2019-05-03T17:23:19.574Z,94130.61
2019-05-03T17:28:21.956Z,94134.22
2019-05-03T17:33:25.323Z,94142.45
2019-05-03T17:38:27.335Z,94146.91
2019-05-03T17:43:31.369Z,94151.47
2019-05-03T17:48:35.625Z,94159.42
2019-05-03T17:53:40.598Z,94161.98
2019-05-03T17:58:55.187Z,94173.43
2019-05-03T18:04:18.402Z,94186.91
2019-05-03T18:09:22.256Z,94199.03
2019-05-03T18:14:25.143Z,94210.64
2019-05-03T18:19:27.884Z,94218.66
2019-05-03T18:24:30.031Z,94220.45
2019-05-03T18:29:34.428Z,94229.90
2019-05-03T18:34:36.510Z,94239.89
2019-05-03T18:39:40.722Z,94240.73
2019-05-03T18:44:48.019Z,94243.20
2019-05-03T18:49:50.318Z,94247.22
2019-05-03T18:54:55.047Z,94251.20
2019-05-03T18:59:57.198Z,94247.13
2019-05-03T19:05:00.175Z,94257.70
2019-05-03T19:10:25.224Z,94269.98
2019-05-03T19:15:29.544Z,94267.63
2019-05-03T19:20:32.430Z,94280.05
2019-05-03T19:25:45.925Z,94283.93
2019-05-03T19:30:41.805Z,94277.80
2019-05-03T19:35:44.503Z,94287.61
2019-05-03T19:40:46.502Z,94295.45
2019-05-03T19:45:48.793Z,94286.63
2019-05-03T19:50:51.448Z,94286.22
2019-05-03T19:55:55.302Z,94276.02
2019-05-03T20:01:05.799Z,94283.53
2019-05-03T20:06:14.363Z,94285.34
2019-05-03T20:11:17.673Z,94287.36
2019-05-03T20:16:19.858Z,94288.05
2019-05-03T20:21:21.843Z,94293.40
2019-05-03T20:26:25.294Z,94304.05
2019-05-03T20:31:27.469Z,94308.66
2019-05-03T20:36:29.411Z,94322.55
2019-05-03T20:41:31.369Z,94330.67
2019-05-03T20:46:37.818Z,94339.37
2019-05-03T20:51:39.811Z,94340.77
2019-05-03T20:56:42.694Z,94341.97
2019-05-03T21:01:45.314Z,94339.12
2019-05-03T21:06:47.264Z,94336.00
2019-05-03T21:11:49.200Z,94334.97
2019-05-03T21:16:55.575Z,94323.72
2019-05-03T21:22:02.471Z,94330.84
2019-05-03T21:27:05.709Z,94329.88
2019-05-03T21:32:07.837Z,94333.86
2019-05-03T21:37:09.713Z,94324.13
2019-05-03T21:42:11.597Z,94318.09
2019-05-03T21:47:15.543Z,94317.32
2019-05-03T21:52:17.410Z,94316.91
2019-05-03T21:57:19.319Z,94325.05
2019-05-03T22:02:21.813Z,94322.22
2019-05-03T22:07:25.116Z,94307.00
2019-05-03T22:12:27.487Z,94315.04
2019-05-03T22:17:47.875Z,94310.05
2019-05-03T22:22:55.410Z,94313.70
2019-05-03T22:27:57.535Z,94317.09
2019-05-03T22:32:59.438Z,94317.41
2019-05-03T22:38:03.974Z,94315.77
2019-05-03T22:43:05.031Z,94324.01
2019-05-03T22:48:06.896Z,94324.84
2019-05-03T22:53:08.801Z,94314.32
2019-05-03T22:58:10.780Z,94312.67
2019-05-03T23:03:14.495Z,94313.31
2019-05-03T23:08:16.540Z,94315.78
2019-05-03T23:13:18.419Z,94301.72
2019-05-03T23:18:20.342Z,94310.73
2019-05-03T23:23:40.559Z,94313.13
2019-05-03T23:28:44.524Z,94312.38
2019-05-03T23:33:46.651Z,94309.63
2019-05-03T23:38:48.611Z,94298.84
2019-05-03T23:43:50.420Z,94306.47
2019-05-03T23:48:52.356Z,94308.90
2019-05-03T23:53:55.025Z,94308.70
2019-05-03T23:58:57.073Z,94299.67
